^^
Station Historical Data
Daily Summary for July 13, 2017 Units:  Both    English   Metric
« Previous Day
Next Day »
Daily Weekly Monthly Yearly Custom
  High: Low: Average:
Temperature: 77.0 °F /  25 °C 48.2 °F /  9 °C 61 °F /  16.1 °C
Dew Point: 39.4 °F /  4.1 °C 32.4 °F /  0.2 °C 35.4 °F /  1.9 °C
Humidity: 61% 22% 41%
Wind Speed: 4.0mph /  6.4km/h - 0.4mph /  0.6km/h
Wind Gust: 7.0mph /  11.3km/h - -
Wind- - SW
Pressure: 30.34 in /  1027.3 hPa 30.19 in /  1022.2 hPa -
Precipitation: 0.00 in /  0 mm    
Historical Graphs
 
 
Tabular Data for July 13, 2017
Time Temperature Dew Point Pressure Wind Wind Speed Wind Gust Humidity Rainfall Rate (Hourly) solar Conditions
00:00 54.1 °F /  12.3 °C 34.3 °F /  1.3 °C 30.31in /  1026.3hPa Calm   3.0mph /  4.8km/h 47% 0.00in /  0mm 0.0 W/m2
00:06 54.1 °F /  12.3 °C 34.3 °F /  1.3 °C 30.31in /  1026.3hPa Calm   4.0mph /  6.4km/h 47% 0.00in /  0mm 0.0 W/m2
00:13 54.3 °F /  12.4 °C 34.5 °F /  1.4 °C 30.31in /  1026.3hPa Calm   1.0mph /  1.6km/h 47% 0.00in /  0mm 0.0 W/m2
00:19 54.1 °F /  12.3 °C 34.3 °F /  1.3 °C 30.31in /  1026.3hPa Calm   1.0mph /  1.6km/h 47% 0.00in /  0mm 0.0 W/m2
00:25 54.1 °F /  12.3 °C 34.3 °F /  1.3 °C 30.31in /  1026.3hPa Calm   1.0mph /  1.6km/h 47% 0.00in /  0mm 0.0 W/m2
00:31 54.1 °F /  12.3 °C 34.3 °F /  1.3 °C 30.31in /  1026.3hPa Calm   3.0mph /  4.8km/h 47% 0.00in /  0mm 0.0 W/m2
00:37 54.3 °F /  12.4 °C 34.5 °F /  1.4 °C 30.31in /  1026.3hPa Calm     47% 0.00in /  0mm 0.0 W/m2
00:43 54.1 °F /  12.3 °C 34.3 °F /  1.3 °C 30.31in /  1026.3hPa Calm   1.0mph /  1.6km/h 47% 0.00in /  0mm 0.0 W/m2
00:49 54.3 °F /  12.4 °C 34.5 °F /  1.4 °C 30.30in /  1026hPa Calm   1.0mph /  1.6km/h 47% 0.00in /  0mm 0.0 W/m2
00:56 54.3 °F /  12.4 °C 34.5 °F /  1.4 °C 30.30in /  1026hPa Calm   4.0mph /  6.4km/h 47% 0.00in /  0mm 0.0 W/m2
01:02 54.3 °F /  12.4 °C 34.5 °F /  1.4 °C 30.30in /  1026hPa Calm   4.0mph /  6.4km/h 47% 0.00in /  0mm 0.0 W/m2
01:08 54.3 °F /  12.4 °C 34.5 °F /  1.4 °C 30.30in /  1026hPa ESE 2.0mph /  3.2km/h 3.0mph /  4.8km/h 47% 0.00in /  0mm 0.0 W/m2
01:14 54.1 °F /  12.3 °C 34.3 °F /  1.3 °C 30.30in /  1026hPa Calm   3.0mph /  4.8km/h 47% 0.00in /  0mm 0.0 W/m2
01:20 54.1 °F /  12.3 °C 34.3 °F /  1.3 °C 30.30in /  1026hPa Calm   1.0mph /  1.6km/h 47% 0.00in /  0mm 0.0 W/m2
01:26 54.0 °F /  12.2 °C 34.7 °F /  1.5 °C 30.30in /  1026hPa Calm   1.0mph /  1.6km/h 48% 0.00in /  0mm 0.0 W/m2
01:32 53.8 °F /  12.1 °C 34.5 °F /  1.4 °C 30.30in /  1026hPa ESE 0.9mph /  1.4km/h 3.0mph /  4.8km/h 48% 0.00in /  0mm 0.0 W/m2
01:38 53.6 °F /  12 °C 34.3 °F /  1.3 °C 30.29in /  1025.6hPa NNE 4.0mph /  6.4km/h 4.0mph /  6.4km/h 48% 0.00in /  0mm 0.0 W/m2
01:44 53.2 °F /  11.8 °C 34.5 °F /  1.4 °C 30.29in /  1025.6hPa ENE 2.0mph /  3.2km/h 4.0mph /  6.4km/h 49% 0.00in /  0mm 0.0 W/m2
01:51 53.1 °F /  11.7 °C 34.3 °F /  1.3 °C 30.29in /  1025.6hPa ENE 0.9mph /  1.4km/h 2.0mph /  3.2km/h 49% 0.00in /  0mm 0.0 W/m2
01:57 53.1 °F /  11.7 °C 34.9 °F /  1.6 °C 30.29in /  1025.6hPa ESE 0.9mph /  1.4km/h 2.0mph /  3.2km/h 50% 0.00in /  0mm 0.0 W/m2
02:03 53.1 °F /  11.7 °C 34.9 °F /  1.6 °C 30.30in /  1026hPa NW 0.9mph /  1.4km/h 4.0mph /  6.4km/h 50% 0.00in /  0mm 0.0 W/m2
02:09 53.4 °F /  11.9 °C 34.7 °F /  1.5 °C 30.30in /  1026hPa Calm   4.0mph /  6.4km/h 49% 0.00in /  0mm 0.0 W/m2
02:15 54.1 °F /  12.3 °C 34.9 °F /  1.6 °C 30.30in /  1026hPa Calm   1.0mph /  1.6km/h 48% 0.00in /  0mm 0.0 W/m2
02:21 54.5 °F /  12.5 °C 35.2 °F /  1.8 °C 30.30in /  1026hPa Calm     48% 0.00in /  0mm 0.0 W/m2
02:27 54.3 °F /  12.4 °C 35.1 °F /  1.7 °C 30.30in /  1026hPa Calm     48% 0.00in /  0mm 0.0 W/m2
02:34 54.0 °F /  12.2 °C 34.7 °F /  1.5 °C 30.30in /  1026hPa Calm     48% 0.00in /  0mm 0.0 W/m2
02:40 53.4 °F /  11.9 °C 34.7 °F /  1.5 °C 30.30in /  1026hPa Calm     49% 0.00in /  0mm 0.0 W/m2
02:46 53.2 °F /  11.8 °C 35.1 °F /  1.7 °C 30.30in /  1026hPa Calm   1.0mph /  1.6km/h 50% 0.00in /  0mm 0.0 W/m2
02:52 52.9 °F /  11.6 °C 34.7 °F /  1.5 °C 30.29in /  1025.6hPa Calm   1.0mph /  1.6km/h 50% 0.00in /  0mm 0.0 W/m2
02:58 52.5 °F /  11.4 °C 34.9 °F /  1.6 °C 30.29in /  1025.6hPa Calm     51% 0.00in /  0mm 0.0 W/m2
03:04 52.3 °F /  11.3 °C 34.7 °F /  1.5 °C 30.29in /  1025.6hPa Calm     51% 0.00in /  0mm 0.0 W/m2
03:10 52.2 °F /  11.2 °C 35.1 °F /  1.7 °C 30.29in /  1025.6hPa Calm     52% 0.00in /  0mm 0.0 W/m2
03:17 52.0 °F /  11.1 °C 34.9 °F /  1.6 °C 30.29in /  1025.6hPa Calm     52% 0.00in /  0mm 0.0 W/m2
03:23 51.6 °F /  10.9 °C 35.1 °F /  1.7 °C 30.29in /  1025.6hPa Calm     53% 0.00in /  0mm 0.0 W/m2
03:29 51.3 °F /  10.7 °C 34.7 °F /  1.5 °C 30.29in /  1025.6hPa Calm     53% 0.00in /  0mm 0.0 W/m2
03:35 50.9 °F /  10.5 °C 34.9 °F /  1.6 °C 30.29in /  1025.6hPa Calm     54% 0.00in /  0mm 0.0 W/m2
03:41 50.5 °F /  10.3 °C 34.5 °F /  1.4 °C 30.29in /  1025.6hPa Calm     54% 0.00in /  0mm 0.0 W/m2
03:47 50.2 °F /  10.1 °C 34.7 °F /  1.5 °C 30.29in /  1025.6hPa Calm     55% 0.00in /  0mm 0.0 W/m2
03:53 50.0 °F /  10 °C 34.5 °F /  1.4 °C 30.29in /  1025.6hPa Calm     55% 0.00in /  0mm 0.0 W/m2
03:59 49.8 °F /  9.9 °C 34.3 °F /  1.3 °C 30.29in /  1025.6hPa Calm     55% 0.00in /  0mm 0.0 W/m2
04:06 49.8 °F /  9.9 °C 34.7 °F /  1.5 °C 30.29in /  1025.6hPa Calm     56% 0.00in /  0mm 0.0 W/m2
04:12 49.5 °F /  9.7 °C 34.9 °F /  1.6 °C 30.29in /  1025.6hPa Calm     57% 0.00in /  0mm 0.0 W/m2
04:18 49.3 °F /  9.6 °C 34.7 °F /  1.5 °C 30.29in /  1025.6hPa Calm     57% 0.00in /  0mm 0.0 W/m2
04:24 49.1 °F /  9.5 °C 34.9 °F /  1.6 °C 30.29in /  1025.6hPa Calm     58% 0.00in /  0mm 0.0 W/m2
04:30 48.7 °F /  9.3 °C 34.7 °F /  1.5 °C 30.29in /  1025.6hPa Calm     58% 0.00in /  0mm 0.0 W/m2
04:36 48.6 °F /  9.2 °C 34.9 °F /  1.6 °C 30.28in /  1025.3hPa Calm     59% 0.00in /  0mm 0.0 W/m2
04:43 48.6 °F /  9.2 °C 34.9 °F /  1.6 °C 30.29in /  1025.6hPa Calm   1.0mph /  1.6km/h 59% 0.00in /  0mm 0.0 W/m2
04:49 48.4 °F /  9.1 °C 34.7 °F /  1.5 °C 30.29in /  1025.6hPa Calm     59% 0.00in /  0mm 0.0 W/m2
04:55 48.4 °F /  9.1 °C 34.7 °F /  1.5 °C 30.29in /  1025.6hPa Calm     59% 0.00in /  0mm 0.0 W/m2
05:01 48.4 °F /  9.1 °C 34.7 °F /  1.5 °C 30.29in /  1025.6hPa Calm     59% 0.00in /  0mm 0.0 W/m2
05:07 48.2 °F /  9 °C 34.5 °F /  1.4 °C 30.30in /  1026hPa Calm     59% 0.00in /  0mm 0.0 W/m2
05:13 48.2 °F /  9 °C 34.5 °F /  1.4 °C 30.29in /  1025.6hPa Calm   1.0mph /  1.6km/h 59% 0.00in /  0mm 0.0 W/m2
05:19 48.2 °F /  9 °C 34.9 °F /  1.6 °C 30.30in /  1026hPa East 2.0mph /  3.2km/h 2.0mph /  3.2km/h 60% 0.00in /  0mm 0.0 W/m2
05:26 48.4 °F /  9.1 °C 34.7 °F /  1.5 °C 30.30in /  1026hPa Calm     59% 0.00in /  0mm 0.0 W/m2
05:32 48.6 °F /  9.2 °C 34.9 °F /  1.6 °C 30.30in /  1026hPa Calm     59% 0.00in /  0mm 0.0 W/m2
05:38 48.6 °F /  9.2 °C 34.9 °F /  1.6 °C 30.30in /  1026hPa Calm     59% 0.00in /  0mm 0.0 W/m2
05:44 48.6 °F /  9.2 °C 34.9 °F /  1.6 °C 30.30in /  1026hPa Calm     59% 0.00in /  0mm 0.0 W/m2
05:50 48.7 °F /  9.3 °C 35.1 °F /  1.7 °C 30.30in /  1026hPa Calm     59% 0.00in /  0mm 0.0 W/m2
05:56 48.7 °F /  9.3 °C 35.1 °F /  1.7 °C 30.30in /  1026hPa Calm     59% 0.00in /  0mm 0.0 W/m2
06:02 48.6 °F /  9.2 °C 34.9 °F /  1.6 °C 30.30in /  1026hPa Calm   1.0mph /  1.6km/h 59% 0.00in /  0mm 0.0 W/m2
06:09 48.6 °F /  9.2 °C 34.9 °F /  1.6 °C 30.31in /  1026.3hPa Calm     59% 0.00in /  0mm 0.0 W/m2
06:15 48.6 °F /  9.2 °C 34.9 °F /  1.6 °C 30.30in /  1026hPa Calm   3.0mph /  4.8km/h 59% 0.00in /  0mm 0.0 W/m2
06:21 48.6 °F /  9.2 °C 34.9 °F /  1.6 °C 30.30in /  1026hPa Calm   2.0mph /  3.2km/h 59% 0.00in /  0mm 0.0 W/m2
06:27 48.6 °F /  9.2 °C 35.2 °F /  1.8 °C 30.31in /  1026.3hPa Calm     60% 0.00in /  0mm 0.0 W/m2
06:33 48.7 °F /  9.3 °C 35.4 °F /  1.9 °C 30.31in /  1026.3hPa Calm   1.0mph /  1.6km/h 60% 0.00in /  0mm 0.0 W/m2
06:39 48.7 °F /  9.3 °C 35.4 °F /  1.9 °C 30.31in /  1026.3hPa Calm     60% 0.00in /  0mm 7.0 W/m2
06:45 48.7 °F /  9.3 °C 35.4 °F /  1.9 °C 30.31in /  1026.3hPa Calm   2.0mph /  3.2km/h 60% 0.00in /  0mm 11.0 W/m2
06:51 48.7 °F /  9.3 °C 35.4 °F /  1.9 °C 30.32in /  1026.6hPa Calm     60% 0.00in /  0mm 14.0 W/m2
06:57 48.7 °F /  9.3 °C 35.4 °F /  1.9 °C 30.32in /  1026.6hPa Calm   1.0mph /  1.6km/h 60% 0.00in /  0mm 16.0 W/m2
07:03 48.7 °F /  9.3 °C 35.4 °F /  1.9 °C 30.32in /  1026.6hPa Calm   2.0mph /  3.2km/h 60% 0.00in /  0mm 19.0 W/m2
07:09 48.9 °F /  9.4 °C 36.1 °F /  2.3 °C 30.32in /  1026.6hPa Calm     61% 0.00in /  0mm 23.0 W/m2
07:15 48.9 °F /  9.4 °C 36.1 °F /  2.3 °C 30.32in /  1026.6hPa Calm   1.0mph /  1.6km/h 61% 0.00in /  0mm 25.0 W/m2
07:21 48.9 °F /  9.4 °C 36.1 °F /  2.3 °C 30.32in /  1026.6hPa Calm     61% 0.00in /  0mm 26.0 W/m2
07:27 49.3 °F /  9.6 °C 36.0 °F /  2.2 °C 30.32in /  1026.6hPa Calm     60% 0.00in /  0mm 28.0 W/m2
07:33 49.6 °F /  9.8 °C 36.3 °F /  2.4 °C 30.33in /  1027hPa Calm   1.0mph /  1.6km/h 60% 0.00in /  0mm 32.0 W/m2
07:39 50.2 °F /  10.1 °C 36.9 °F /  2.7 °C 30.32in /  1026.6hPa Calm   2.0mph /  3.2km/h 60% 0.00in /  0mm 33.0 W/m2
07:45 50.5 °F /  10.3 °C 36.7 °F /  2.6 °C 30.33in /  1027hPa Calm   1.0mph /  1.6km/h 59% 0.00in /  0mm 35.0 W/m2
07:51 50.9 °F /  10.5 °C 37.9 °F /  3.3 °C 30.32in /  1026.6hPa Calm     61% 0.00in /  0mm 39.0 W/m2
07:57 51.4 °F /  10.8 °C 37.6 °F /  3.1 °C 30.32in /  1026.6hPa Calm   1.0mph /  1.6km/h 59% 0.00in /  0mm 40.0 W/m2
08:03 52.7 °F /  11.5 °C 37.9 °F /  3.3 °C 30.33in /  1027hPa Calm   2.0mph /  3.2km/h 57% 0.00in /  0mm 42.0 W/m2
08:09 54.9 °F /  12.7 °C 38.1 °F /  3.4 °C 30.33in /  1027hPa NE 2.0mph /  3.2km/h 4.0mph /  6.4km/h 53% 0.00in /  0mm 83.0 W/m2
08:15 57.4 °F /  14.1 °C 38.3 °F /  3.5 °C 30.33in /  1027hPa Calm   3.0mph /  4.8km/h 49% 0.00in /  0mm 278.0 W/m2
08:21 59.2 °F /  15.1 °C 39.0 °F /  3.9 °C 30.33in /  1027hPa Calm   1.0mph /  1.6km/h 47% 0.00in /  0mm 297.0 W/m2
08:27 60.8 °F /  16 °C 39.4 °F /  4.1 °C 30.33in /  1027hPa Calm   1.0mph /  1.6km/h 45% 0.00in /  0mm 318.0 W/m2
08:33 62.1 °F /  16.7 °C 39.4 °F /  4.1 °C 30.33in /  1027hPa Calm   1.0mph /  1.6km/h 43% 0.00in /  0mm 338.0 W/m2
08:39 63.5 °F /  17.5 °C 38.7 °F /  3.7 °C 30.33in /  1027hPa Calm   1.0mph /  1.6km/h 40% 0.00in /  0mm 357.0 W/m2
08:45 64.8 °F /  18.2 °C 39.2 °F /  4 °C 30.33in /  1027hPa Calm   1.0mph /  1.6km/h 39% 0.00in /  0mm 374.0 W/m2
08:51 65.7 °F /  18.7 °C 39.4 °F /  4.1 °C 30.34in /  1027.3hPa Calm   1.0mph /  1.6km/h 38% 0.00in /  0mm 390.0 W/m2
08:57 66.2 °F /  19 °C 39.2 °F /  4 °C 30.34in /  1027.3hPa Calm     37% 0.00in /  0mm 404.0 W/m2
09:03 66.4 °F /  19.1 °C 39.4 °F /  4.1 °C 30.34in /  1027.3hPa Calm     37% 0.00in /  0mm 422.0 W/m2
09:09 66.6 °F /  19.2 °C 38.8 °F /  3.8 °C 30.33in /  1027hPa Calm   1.0mph /  1.6km/h 36% 0.00in /  0mm 436.0 W/m2
09:15 66.9 °F /  19.4 °C 39.0 °F /  3.9 °C 30.33in /  1027hPa West 0.9mph /  1.4km/h 2.0mph /  3.2km/h 36% 0.00in /  0mm 454.0 W/m2
09:21 66.9 °F /  19.4 °C 39.0 °F /  3.9 °C 30.33in /  1027hPa Calm   3.0mph /  4.8km/h 36% 0.00in /  0mm 468.0 W/m2
09:27 66.6 °F /  19.2 °C 38.8 °F /  3.8 °C 30.33in /  1027hPa Calm   1.0mph /  1.6km/h 36% 0.00in /  0mm 487.0 W/m2
09:33 66.6 °F /  19.2 °C 38.8 °F /  3.8 °C 30.33in /  1027hPa Calm   2.0mph /  3.2km/h 36% 0.00in /  0mm 499.0 W/m2
09:39 66.9 °F /  19.4 °C 39.0 °F /  3.9 °C 30.33in /  1027hPa Calm   3.0mph /  4.8km/h 36% 0.00in /  0mm 499.0 W/m2
09:45 67.3 °F /  19.6 °C 38.7 °F /  3.7 °C 30.33in /  1027hPa Calm     35% 0.00in /  0mm 527.0 W/m2
09:51 67.5 °F /  19.7 °C 38.1 °F /  3.4 °C 30.33in /  1027hPa Calm   2.0mph /  3.2km/h 34% 0.00in /  0mm 541.0 W/m2
09:57 67.6 °F /  19.8 °C 39.0 °F /  3.9 °C 30.33in /  1027hPa NNW 2.0mph /  3.2km/h 2.0mph /  3.2km/h 35% 0.00in /  0mm 552.0 W/m2
10:03 68.0 °F /  20 °C 38.7 °F /  3.7 °C 30.33in /  1027hPa Calm   3.0mph /  4.8km/h 34% 0.00in /  0mm 559.0 W/m2
10:09 68.2 °F /  20.1 °C 38.7 °F /  3.7 °C 30.32in /  1026.6hPa Calm   2.0mph /  3.2km/h 34% 0.00in /  0mm 571.0 W/m2
10:15 68.2 °F /  20.1 °C 38.7 °F /  3.7 °C 30.32in /  1026.6hPa North 0.9mph /  1.4km/h 2.0mph /  3.2km/h 34% 0.00in /  0mm 578.0 W/m2
10:21 68.7 °F /  20.4 °C 38.5 °F /  3.6 °C 30.32in /  1026.6hPa WSW 4.0mph /  6.4km/h 5.0mph /  8km/h 33% 0.00in /  0mm 585.0 W/m2
10:27 69.1 °F /  20.6 °C 38.8 °F /  3.8 °C 30.32in /  1026.6hPa Calm   4.0mph /  6.4km/h 33% 0.00in /  0mm 596.0 W/m2
10:33 70.0 °F /  21.1 °C 38.8 °F /  3.8 °C 30.32in /  1026.6hPa North 2.0mph /  3.2km/h 3.0mph /  4.8km/h 32% 0.00in /  0mm 603.0 W/m2
10:40 70.9 °F /  21.6 °C 38.7 °F /  3.7 °C 30.31in /  1026.3hPa NNW 4.0mph /  6.4km/h 5.0mph /  8km/h 31% 0.00in /  0mm 612.0 W/m2
10:46 71.4 °F /  21.9 °C 39.2 °F /  4 °C 30.31in /  1026.3hPa Calm   6.0mph /  9.7km/h 31% 0.00in /  0mm 622.0 W/m2
10:52 71.6 °F /  22 °C 38.5 °F /  3.6 °C 30.31in /  1026.3hPa Calm   1.0mph /  1.6km/h 30% 0.00in /  0mm 633.0 W/m2
10:57 72.0 °F /  22.2 °C 38.8 °F /  3.8 °C 30.31in /  1026.3hPa NNW 0.9mph /  1.4km/h 3.0mph /  4.8km/h 30% 0.00in /  0mm 643.0 W/m2
11:04 72.1 °F /  22.3 °C 38.1 °F /  3.4 °C 30.31in /  1026.3hPa Calm   2.0mph /  3.2km/h 29% 0.00in /  0mm 596.0 W/m2
11:10 72.3 °F /  22.4 °C 38.3 °F /  3.5 °C 30.30in /  1026hPa West 0.9mph /  1.4km/h 7.0mph /  11.3km/h 29% 0.00in /  0mm 640.0 W/m2
11:16 72.1 °F /  22.3 °C 39.0 °F /  3.9 °C 30.30in /  1026hPa SW 2.9mph /  4.7km/h 3.0mph /  4.8km/h 30% 0.00in /  0mm 654.0 W/m2
11:22 72.1 °F /  22.3 °C 38.1 °F /  3.4 °C 30.30in /  1026hPa NNW 2.0mph /  3.2km/h 3.0mph /  4.8km/h 29% 0.00in /  0mm 654.0 W/m2
11:28 72.7 °F /  22.6 °C 39.4 °F /  4.1 °C 30.30in /  1026hPa NNE 0.9mph /  1.4km/h 2.0mph /  3.2km/h 30% 0.00in /  0mm 654.0 W/m2
11:34 73.2 °F /  22.9 °C 39.0 °F /  3.9 °C 30.29in /  1025.6hPa North 0.9mph /  1.4km/h 4.0mph /  6.4km/h 29% 0.00in /  0mm 661.0 W/m2
11:40 73.8 °F /  23.2 °C 38.7 °F /  3.7 °C 30.29in /  1025.6hPa Calm   1.0mph /  1.6km/h 28% 0.00in /  0mm 663.0 W/m2
11:46 74.3 °F /  23.5 °C 39.0 °F /  3.9 °C 30.28in /  1025.3hPa SW 2.9mph /  4.7km/h 6.0mph /  9.7km/h 28% 0.00in /  0mm 670.0 W/m2
11:52 74.5 °F /  23.6 °C 38.3 °F /  3.5 °C 30.28in /  1025.3hPa WNW 2.0mph /  3.2km/h 7.0mph /  11.3km/h 27% 0.00in /  0mm 670.0 W/m2
11:58 74.1 °F /  23.4 °C 37.9 °F /  3.3 °C 30.27in /  1024.9hPa West 0.9mph /  1.4km/h 3.0mph /  4.8km/h 27% 0.00in /  0mm 643.0 W/m2
12:04 74.3 °F /  23.5 °C 38.1 °F /  3.4 °C 30.27in /  1024.9hPa North 0.9mph /  1.4km/h 5.0mph /  8km/h 27% 0.00in /  0mm 636.0 W/m2
12:10 74.7 °F /  23.7 °C 38.5 °F /  3.6 °C 30.27in /  1024.9hPa NNW 0.9mph /  1.4km/h 6.0mph /  9.7km/h 27% 0.00in /  0mm 633.0 W/m2
12:16 74.7 °F /  23.7 °C 39.4 °F /  4.1 °C 30.26in /  1024.6hPa NNW 2.0mph /  3.2km/h 5.0mph /  8km/h 28% 0.00in /  0mm 647.0 W/m2
12:22 74.8 °F /  23.8 °C 38.7 °F /  3.7 °C 30.26in /  1024.6hPa Calm   2.0mph /  3.2km/h 27% 0.00in /  0mm 650.0 W/m2
12:28 74.8 °F /  23.8 °C 38.7 °F /  3.7 °C 30.25in /  1024.3hPa Calm   3.0mph /  4.8km/h 27% 0.00in /  0mm 666.0 W/m2
12:34 75.4 °F /  24.1 °C 38.1 °F /  3.4 °C 30.25in /  1024.3hPa Calm   2.0mph /  3.2km/h 26% 0.00in /  0mm 664.0 W/m2
12:40 75.4 °F /  24.1 °C 38.1 °F /  3.4 °C 30.25in /  1024.3hPa Calm   7.0mph /  11.3km/h 26% 0.00in /  0mm 659.0 W/m2
12:46 75.6 °F /  24.2 °C 38.3 °F /  3.5 °C 30.24in /  1023.9hPa NNW 0.9mph /  1.4km/h 4.0mph /  6.4km/h 26% 0.00in /  0mm 650.0 W/m2
12:52 75.7 °F /  24.3 °C 37.4 °F /  3 °C 30.24in /  1023.9hPa West 0.9mph /  1.4km/h 3.0mph /  4.8km/h 25% 0.00in /  0mm 645.0 W/m2
12:58 76.1 °F /  24.5 °C 38.7 °F /  3.7 °C 30.24in /  1023.9hPa Calm   2.0mph /  3.2km/h 26% 0.00in /  0mm 643.0 W/m2
13:04 76.5 °F /  24.7 °C 37.0 °F /  2.8 °C 30.23in /  1023.6hPa NNW 2.9mph /  4.7km/h 3.0mph /  4.8km/h 24% 0.00in /  0mm 635.0 W/m2
13:10 76.3 °F /  24.6 °C 36.9 °F /  2.7 °C 30.23in /  1023.6hPa NNW 2.0mph /  3.2km/h 5.0mph /  8km/h 24% 0.00in /  0mm 621.0 W/m2
13:16 76.5 °F /  24.7 °C 37.9 °F /  3.3 °C 30.23in /  1023.6hPa Calm   3.0mph /  4.8km/h 25% 0.00in /  0mm 585.0 W/m2
13:22 76.6 °F /  24.8 °C 36.1 °F /  2.3 °C 30.22in /  1023.2hPa Calm   5.0mph /  8km/h 23% 0.00in /  0mm 591.0 W/m2
13:28 76.8 °F /  24.9 °C 37.2 °F /  2.9 °C 30.22in /  1023.2hPa Calm   2.0mph /  3.2km/h 24% 0.00in /  0mm 592.0 W/m2
13:34 76.8 °F /  24.9 °C 36.1 °F /  2.3 °C 30.22in /  1023.2hPa Calm   3.0mph /  4.8km/h 23% 0.00in /  0mm 580.0 W/m2
13:40 76.8 °F /  24.9 °C 36.1 °F /  2.3 °C 30.22in /  1023.2hPa Calm   2.0mph /  3.2km/h 23% 0.00in /  0mm 570.0 W/m2
13:46 76.5 °F /  24.7 °C 34.9 °F /  1.6 °C 30.22in /  1023.2hPa Calm   2.0mph /  3.2km/h 22% 0.00in /  0mm 559.0 W/m2
13:52 76.5 °F /  24.7 °C 34.9 °F /  1.6 °C 30.21in /  1022.9hPa NNW 2.0mph /  3.2km/h 5.0mph /  8km/h 22% 0.00in /  0mm 519.0 W/m2
13:58 76.5 °F /  24.7 °C 34.9 °F /  1.6 °C 30.21in /  1022.9hPa ENE 2.0mph /  3.2km/h 3.0mph /  4.8km/h 22% 0.00in /  0mm 517.0 W/m2
14:04 76.3 °F /  24.6 °C 34.7 °F /  1.5 °C 30.21in /  1022.9hPa Calm   1.0mph /  1.6km/h 22% 0.00in /  0mm 506.0 W/m2
14:10 75.7 °F /  24.3 °C 36.3 °F /  2.4 °C 30.21in /  1022.9hPa Calm   4.0mph /  6.4km/h 24% 0.00in /  0mm 461.0 W/m2
14:16 75.6 °F /  24.2 °C 35.2 °F /  1.8 °C 30.21in /  1022.9hPa SE 2.9mph /  4.7km/h 5.0mph /  8km/h 23% 0.00in /  0mm 394.0 W/m2
14:22 75.6 °F /  24.2 °C 35.2 °F /  1.8 °C 30.20in /  1022.6hPa West 0.9mph /  1.4km/h 2.0mph /  3.2km/h 23% 0.00in /  0mm 397.0 W/m2
14:28 75.9 °F /  24.4 °C 35.4 °F /  1.9 °C 30.20in /  1022.6hPa Calm   1.0mph /  1.6km/h 23% 0.00in /  0mm 473.0 W/m2
14:34 76.3 °F /  24.6 °C 35.8 °F /  2.1 °C 30.20in /  1022.6hPa SE 2.0mph /  3.2km/h 3.0mph /  4.8km/h 23% 0.00in /  0mm 455.0 W/m2
14:40 76.5 °F /  24.7 °C 36.0 °F /  2.2 °C 30.20in /  1022.6hPa WSW 0.9mph /  1.4km/h 2.0mph /  3.2km/h 23% 0.00in /  0mm 431.0 W/m2
14:46 76.8 °F /  24.9 °C 35.1 °F /  1.7 °C 30.20in /  1022.6hPa Calm   1.0mph /  1.6km/h 22% 0.00in /  0mm 397.0 W/m2
14:52 77.0 °F /  25 °C 35.2 °F /  1.8 °C 30.19in /  1022.2hPa West 2.9mph /  4.7km/h 6.0mph /  9.7km/h 22% 0.00in /  0mm 392.0 W/m2
14:58 76.5 °F /  24.7 °C 34.9 °F /  1.6 °C 30.19in /  1022.2hPa Calm   3.0mph /  4.8km/h 22% 0.00in /  0mm 332.0 W/m2
15:04 76.5 °F /  24.7 °C 34.9 °F /  1.6 °C 30.19in /  1022.2hPa Calm   1.0mph /  1.6km/h 22% 0.00in /  0mm 369.0 W/m2
15:10 76.3 °F /  24.6 °C 34.7 °F /  1.5 °C 30.19in /  1022.2hPa NNE 2.0mph /  3.2km/h 2.0mph /  3.2km/h 22% 0.00in /  0mm 348.0 W/m2
15:16 76.1 °F /  24.5 °C 35.6 °F /  2 °C 30.19in /  1022.2hPa Calm   1.0mph /  1.6km/h 23% 0.00in /  0mm 318.0 W/m2
15:22 75.9 °F /  24.4 °C 34.3 °F /  1.3 °C 30.19in /  1022.2hPa North 0.9mph /  1.4km/h 4.0mph /  6.4km/h 22% 0.00in /  0mm 302.0 W/m2
15:28 75.9 °F /  24.4 °C 34.3 °F /  1.3 °C 30.19in /  1022.2hPa Calm   3.0mph /  4.8km/h 22% 0.00in /  0mm 288.0 W/m2
15:34 75.9 °F /  24.4 °C 35.4 °F /  1.9 °C 30.19in /  1022.2hPa WSW 2.9mph /  4.7km/h 3.0mph /  4.8km/h 23% 0.00in /  0mm 63.0 W/m2
15:40 75.6 °F /  24.2 °C 34.0 °F /  1.1 °C 30.19in /  1022.2hPa Calm   1.0mph /  1.6km/h 22% 0.00in /  0mm 58.0 W/m2
15:46 75.0 °F /  23.9 °C 34.7 °F /  1.5 °C 30.19in /  1022.2hPa NW 0.9mph /  1.4km/h 1.0mph /  1.6km/h 23% 0.00in /  0mm 56.0 W/m2
15:52 74.7 °F /  23.7 °C 34.3 °F /  1.3 °C 30.19in /  1022.2hPa SSW 2.0mph /  3.2km/h 5.0mph /  8km/h 23% 0.00in /  0mm 53.0 W/m2
15:58 74.5 °F /  23.6 °C 35.2 °F /  1.8 °C 30.19in /  1022.2hPa Calm   3.0mph /  4.8km/h 24% 0.00in /  0mm 51.0 W/m2
16:04 74.1 °F /  23.4 °C 35.1 °F /  1.7 °C 30.19in /  1022.2hPa WNW 2.9mph /  4.7km/h 5.0mph /  8km/h 24% 0.00in /  0mm 47.0 W/m2
16:11 74.1 °F /  23.4 °C 35.1 °F /  1.7 °C 30.20in /  1022.6hPa NW 0.9mph /  1.4km/h 1.0mph /  1.6km/h 24% 0.00in /  0mm 44.0 W/m2
16:17 73.9 °F /  23.3 °C 34.9 °F /  1.6 °C 30.20in /  1022.6hPa NNW 2.0mph /  3.2km/h 4.0mph /  6.4km/h 24% 0.00in /  0mm 39.0 W/m2
16:23 73.8 °F /  23.2 °C 34.7 °F /  1.5 °C 30.19in /  1022.2hPa WSW 0.9mph /  1.4km/h 2.0mph /  3.2km/h 24% 0.00in /  0mm 35.0 W/m2
16:29 73.2 °F /  22.9 °C 35.2 °F /  1.8 °C 30.19in /  1022.2hPa Calm   1.0mph /  1.6km/h 25% 0.00in /  0mm 33.0 W/m2
16:34 73.0 °F /  22.8 °C 35.1 °F /  1.7 °C 30.20in /  1022.6hPa Calm   3.0mph /  4.8km/h 25% 0.00in /  0mm 32.0 W/m2
16:41 72.7 °F /  22.6 °C 34.9 °F /  1.6 °C 30.19in /  1022.2hPa Calm   3.0mph /  4.8km/h 25% 0.00in /  0mm 30.0 W/m2
16:47 72.1 °F /  22.3 °C 34.3 °F /  1.3 °C 30.19in /  1022.2hPa Calm   6.0mph /  9.7km/h 25% 0.00in /  0mm 26.0 W/m2
16:52 72.1 °F /  22.3 °C 34.3 °F /  1.3 °C 30.20in /  1022.6hPa NNW 0.9mph /  1.4km/h 3.0mph /  4.8km/h 25% 0.00in /  0mm 25.0 W/m2
16:59 71.8 °F /  22.1 °C 35.1 °F /  1.7 °C 30.20in /  1022.6hPa Calm   4.0mph /  6.4km/h 26% 0.00in /  0mm 16.0 W/m2
17:05 71.4 °F /  21.9 °C 34.7 °F /  1.5 °C 30.20in /  1022.6hPa Calm   2.0mph /  3.2km/h 26% 0.00in /  0mm 12.0 W/m2
17:11 71.1 °F /  21.7 °C 34.5 °F /  1.4 °C 30.20in /  1022.6hPa Calm   1.0mph /  1.6km/h 26% 0.00in /  0mm 9.0 W/m2
17:17 70.7 °F /  21.5 °C 35.1 °F /  1.7 °C 30.20in /  1022.6hPa Calm     27% 0.00in /  0mm 7.0 W/m2
17:23 70.2 °F /  21.2 °C 35.6 °F /  2 °C 30.20in /  1022.6hPa Calm     28% 0.00in /  0mm 0.0 W/m2
17:29 69.6 °F /  20.9 °C 35.1 °F /  1.7 °C 30.20in /  1022.6hPa Calm     28% 0.00in /  0mm 0.0 W/m2
17:35 69.1 °F /  20.6 °C 35.4 °F /  1.9 °C 30.20in /  1022.6hPa Calm     29% 0.00in /  0mm 0.0 W/m2
17:41 68.2 °F /  20.1 °C 34.7 °F /  1.5 °C 30.21in /  1022.9hPa Calm     29% 0.00in /  0mm 0.0 W/m2
17:47 67.5 °F /  19.7 °C 34.9 °F /  1.6 °C 30.21in /  1022.9hPa Calm     30% 0.00in /  0mm 0.0 W/m2
17:53 66.6 °F /  19.2 °C 34.2 °F /  1.2 °C 30.21in /  1022.9hPa Calm     30% 0.00in /  0mm 0.0 W/m2
17:59 65.8 °F /  18.8 °C 34.3 °F /  1.3 °C 30.21in /  1022.9hPa Calm     31% 0.00in /  0mm 0.0 W/m2
18:05 65.1 °F /  18.4 °C 34.5 °F /  1.4 °C 30.22in /  1023.2hPa Calm     32% 0.00in /  0mm 0.0 W/m2
18:11 64.6 °F /  18.1 °C 34.9 °F /  1.6 °C 30.22in /  1023.2hPa Calm     33% 0.00in /  0mm 0.0 W/m2
18:17 63.9 °F /  17.7 °C 34.2 °F /  1.2 °C 30.22in /  1023.2hPa Calm     33% 0.00in /  0mm 0.0 W/m2
18:23 63.1 °F /  17.3 °C 34.3 °F /  1.3 °C 30.22in /  1023.2hPa Calm     34% 0.00in /  0mm 0.0 W/m2
18:29 62.4 °F /  16.9 °C 33.6 °F /  0.9 °C 30.22in /  1023.2hPa South 0.9mph /  1.4km/h 1.0mph /  1.6km/h 34% 0.00in /  0mm 0.0 W/m2
18:35 61.9 °F /  16.6 °C 34.0 °F /  1.1 °C 30.22in /  1023.2hPa Calm     35% 0.00in /  0mm 0.0 W/m2
18:41 61.3 °F /  16.3 °C 34.2 °F /  1.2 °C 30.22in /  1023.2hPa Calm     36% 0.00in /  0mm 0.0 W/m2
18:47 61.0 °F /  16.1 °C 34.5 °F /  1.4 °C 30.22in /  1023.2hPa Calm     37% 0.00in /  0mm 0.0 W/m2
18:53 60.4 °F /  15.8 °C 34.0 °F /  1.1 °C 30.23in /  1023.6hPa Calm     37% 0.00in /  0mm 0.0 W/m2
18:59 60.1 °F /  15.6 °C 34.3 °F /  1.3 °C 30.23in /  1023.6hPa Calm     38% 0.00in /  0mm 0.0 W/m2
19:05 59.7 °F /  15.4 °C 34.0 °F /  1.1 °C 30.23in /  1023.6hPa Calm     38% 0.00in /  0mm 0.0 W/m2
19:11 59.2 °F /  15.1 °C 33.6 °F /  0.9 °C 30.23in /  1023.6hPa Calm     38% 0.00in /  0mm 0.0 W/m2
19:17 58.8 °F /  14.9 °C 34.0 °F /  1.1 °C 30.23in /  1023.6hPa Calm     39% 0.00in /  0mm 0.0 W/m2
19:23 58.5 °F /  14.7 °C 33.6 °F /  0.9 °C 30.23in /  1023.6hPa Calm     39% 0.00in /  0mm 0.0 W/m2
19:29 58.1 °F /  14.5 °C 33.3 °F /  0.7 °C 30.23in /  1023.6hPa Calm     39% 0.00in /  0mm 0.0 W/m2
19:35 57.7 °F /  14.3 °C 33.6 °F /  0.9 °C 30.24in /  1023.9hPa Calm     40% 0.00in /  0mm 0.0 W/m2
19:41 57.4 °F /  14.1 °C 33.8 °F /  1 °C 30.24in /  1023.9hPa Calm     41% 0.00in /  0mm 0.0 W/m2
19:47 57.0 °F /  13.9 °C 33.6 °F /  0.9 °C 30.24in /  1023.9hPa Calm     41% 0.00in /  0mm 0.0 W/m2
19:53 56.7 °F /  13.7 °C 33.3 °F /  0.7 °C 30.24in /  1023.9hPa Calm     41% 0.00in /  0mm 0.0 W/m2
19:59 56.5 °F /  13.6 °C 33.6 °F /  0.9 °C 30.24in /  1023.9hPa Calm     42% 0.00in /  0mm 0.0 W/m2
20:05 56.1 °F /  13.4 °C 33.3 °F /  0.7 °C 30.24in /  1023.9hPa Calm     42% 0.00in /  0mm 0.0 W/m2
20:12 55.8 °F /  13.2 °C 33.6 °F /  0.9 °C 30.24in /  1023.9hPa Calm     43% 0.00in /  0mm 0.0 W/m2
20:18 55.6 °F /  13.1 °C 33.4 °F /  0.8 °C 30.24in /  1023.9hPa Calm     43% 0.00in /  0mm 0.0 W/m2
20:24 55.4 °F /  13 °C 33.3 °F /  0.7 °C 30.24in /  1023.9hPa Calm     43% 0.00in /  0mm 0.0 W/m2
20:30 55.2 °F /  12.9 °C 33.6 °F /  0.9 °C 30.24in /  1023.9hPa Calm     44% 0.00in /  0mm 0.0 W/m2
20:36 55.0 °F /  12.8 °C 33.4 °F /  0.8 °C 30.24in /  1023.9hPa Calm     44% 0.00in /  0mm 0.0 W/m2
20:42 54.9 °F /  12.7 °C 33.4 °F /  0.8 °C 30.24in /  1023.9hPa Calm   1.0mph /  1.6km/h 44% 0.00in /  0mm 0.0 W/m2
20:49 54.7 °F /  12.6 °C 32.5 °F /  0.3 °C 30.24in /  1023.9hPa Calm   1.0mph /  1.6km/h 43% 0.00in /  0mm 0.0 W/m2
20:56 54.7 °F /  12.6 °C 32.5 °F /  0.3 °C 30.24in /  1023.9hPa Calm     43% 0.00in /  0mm 0.0 W/m2
21:02 54.7 °F /  12.6 °C 32.5 °F /  0.3 °C 30.24in /  1023.9hPa East 0.9mph /  1.4km/h 2.0mph /  3.2km/h 43% 0.00in /  0mm 0.0 W/m2
21:08 54.9 °F /  12.7 °C 32.7 °F /  0.4 °C 30.24in /  1023.9hPa Calm   1.0mph /  1.6km/h 43% 0.00in /  0mm 0.0 W/m2
21:14 55.0 °F /  12.8 °C 32.9 °F /  0.5 °C 30.24in /  1023.9hPa Calm   1.0mph /  1.6km/h 43% 0.00in /  0mm 0.0 W/m2
21:20 55.0 °F /  12.8 °C 32.9 °F /  0.5 °C 30.24in /  1023.9hPa Calm   3.0mph /  4.8km/h 43% 0.00in /  0mm 0.0 W/m2
21:26 55.0 °F /  12.8 °C 32.9 °F /  0.5 °C 30.24in /  1023.9hPa Calm   1.0mph /  1.6km/h 43% 0.00in /  0mm 0.0 W/m2
21:32 55.4 °F /  13 °C 33.3 °F /  0.7 °C 30.24in /  1023.9hPa Calm   1.0mph /  1.6km/h 43% 0.00in /  0mm 0.0 W/m2
21:38 55.4 °F /  13 °C 33.3 °F /  0.7 °C 30.24in /  1023.9hPa Calm   1.0mph /  1.6km/h 43% 0.00in /  0mm 0.0 W/m2
21:44 55.2 °F /  12.9 °C 33.1 °F /  0.6 °C 30.24in /  1023.9hPa Calm   1.0mph /  1.6km/h 43% 0.00in /  0mm 0.0 W/m2
21:51 55.2 °F /  12.9 °C 33.1 °F /  0.6 °C 30.24in /  1023.9hPa Calm   1.0mph /  1.6km/h 43% 0.00in /  0mm 0.0 W/m2
21:57 55.2 °F /  12.9 °C 33.1 °F /  0.6 °C 30.24in /  1023.9hPa Calm     43% 0.00in /  0mm 0.0 W/m2
22:03 55.0 °F /  12.8 °C 32.9 °F /  0.5 °C 30.24in /  1023.9hPa Calm   1.0mph /  1.6km/h 43% 0.00in /  0mm 0.0 W/m2
22:09 54.9 °F /  12.7 °C 32.7 °F /  0.4 °C 30.24in /  1023.9hPa ENE 2.0mph /  3.2km/h 3.0mph /  4.8km/h 43% 0.00in /  0mm 0.0 W/m2
22:15 54.7 °F /  12.6 °C 32.5 °F /  0.3 °C 30.24in /  1023.9hPa NE 4.0mph /  6.4km/h 4.0mph /  6.4km/h 43% 0.00in /  0mm 0.0 W/m2
22:21 54.3 °F /  12.4 °C 32.9 °F /  0.5 °C 30.24in /  1023.9hPa Calm   4.0mph /  6.4km/h 44% 0.00in /  0mm 0.0 W/m2
22:27 54.1 °F /  12.3 °C 32.7 °F /  0.4 °C 30.24in /  1023.9hPa Calm     44% 0.00in /  0mm 0.0 W/m2
22:34 54.3 °F /  12.4 °C 32.9 °F /  0.5 °C 30.24in /  1023.9hPa SE 0.9mph /  1.4km/h 2.0mph /  3.2km/h 44% 0.00in /  0mm 0.0 W/m2
22:40 54.5 °F /  12.5 °C 33.1 °F /  0.6 °C 30.24in /  1023.9hPa Calm   1.0mph /  1.6km/h 44% 0.00in /  0mm 0.0 W/m2
22:46 54.7 °F /  12.6 °C 33.3 °F /  0.7 °C 30.24in /  1023.9hPa SE 0.9mph /  1.4km/h 1.0mph /  1.6km/h 44% 0.00in /  0mm 0.0 W/m2
22:52 54.7 °F /  12.6 °C 33.3 °F /  0.7 °C 30.24in /  1023.9hPa Calm   1.0mph /  1.6km/h 44% 0.00in /  0mm 0.0 W/m2
22:58 54.7 °F /  12.6 °C 32.5 °F /  0.3 °C 30.24in /  1023.9hPa East 2.0mph /  3.2km/h 4.0mph /  6.4km/h 43% 0.00in /  0mm 0.0 W/m2
23:04 54.3 °F /  12.4 °C 32.4 °F /  0.2 °C 30.24in /  1023.9hPa SE 0.9mph /  1.4km/h 2.0mph /  3.2km/h 43% 0.00in /  0mm 0.0 W/m2
23:10 54.1 °F /  12.3 °C 32.7 °F /  0.4 °C 30.24in /  1023.9hPa Calm     44% 0.00in /  0mm 0.0 W/m2
23:16 54.0 °F /  12.2 °C 33.1 °F /  0.6 °C 30.24in /  1023.9hPa Calm     45% 0.00in /  0mm 0.0 W/m2
23:22 53.8 °F /  12.1 °C 32.9 °F /  0.5 °C 30.24in /  1023.9hPa Calm   1.0mph /  1.6km/h 45% 0.00in /  0mm 0.0 W/m2
23:29 53.6 °F /  12 °C 32.7 °F /  0.4 °C 30.24in /  1023.9hPa Calm   1.0mph /  1.6km/h 45% 0.00in /  0mm 0.0 W/m2
23:35 53.4 °F /  11.9 °C 32.5 °F /  0.3 °C 30.24in /  1023.9hPa Calm     45% 0.00in /  0mm 0.0 W/m2
23:41 53.2 °F /  11.8 °C 33.1 °F /  0.6 °C 30.23in /  1023.6hPa Calm     46% 0.00in /  0mm 0.0 W/m2
23:47 52.9 °F /  11.6 °C 32.7 °F /  0.4 °C 30.23in /  1023.6hPa Calm   1.0mph /  1.6km/h 46% 0.00in /  0mm 0.0 W/m2
23:53 52.9 °F /  11.6 °C 32.7 °F /  0.4 °C 30.23in /  1023.6hPa Calm     46% 0.00in /  0mm 0.0 W/m2
23:59 52.5 °F /  11.4 °C 32.4 °F /  0.2 °C 30.23in /  1023.6hPa Calm   1.0mph /  1.6km/h 46% 0.00in /  0mm 0.0 W/m2
Olympia, Windhoek, Namibia
Compliments of Weather Underground - 3 mb